KCVH

Hollister Municipal Airport

Hollister, California, USA
METAR KCVH 190455Z AUTO 00000KT 10SM CLR 12/09 A2992 RMK A01
Observed Flight Rules
Sep-19 @ 04:55 UTC (19 minutes ago) Visual Flight Rules
Visibility Clouds
10 miles
  • Clear skies
Temperatures Readings
Current 12°C / 54°F
Dewpoint 9°C / 48°F
Humidity 82%
Altimeter 29.92" Hg
Pressure 1013 hPa
Elevation 70
METAR KCVH 190455Z AUTO 00000KT 10SM CLR 12/09 A2992 RMK A01
Observed Flight Rules
Sep-19 @ 04:55 UTC
(19 minutes ago)
VFR
Clouds
  • Clear skies
Temperature Dewpoint
12°C / 54°F 9°C / 48°F
Humidity Altimeter Pressure
82% 29.92" Hg 1013 hPa